Time;durP1;ratioP1;P1;durP2;ratioP2;P2;SDS_P1;SDS_P2;PMS_P1;PMS_P2;Temp;Humidity;BMP_temperature;BMP_pressure;BME280_temperature;BME280_humidity;BME280_pressure;Samples;Min_cycle;Max_cycle;Signal;HPM_P1;HPM_P2
2024/01/27 00:01:38;;;;;;;1999.90;999.90;;;2.40;95.70;;;;;;5062993;28;20033;-79
2024/01/27 00:04:04;;;;;;;1999.90;999.90;;;2.20;95.70;;;;;;5068045;28;20033;-79
2024/01/27 00:06:29;;;;;;;1999.90;999.90;;;2.00;96.10;;;;;;5065509;28;20067;-80
2024/01/27 00:08:55;;;;;;;1999.90;999.90;;;1.90;96.40;;;;;;5066816;28;20059;-80
2024/01/27 00:11:23;;;;;;;1999.90;999.90;;;1.90;97.00;;;;;;5064601;28;20021;-79
2024/01/27 00:13:49;;;;;;;1999.90;999.90;;;1.90;97.00;;;;;;5060412;28;20028;-81
2024/01/27 00:16:14;;;;;;;1999.90;999.90;;;1.90;97.20;;;;;;5067709;28;20030;-79
2024/01/27 00:18:40;;;;;;;1999.90;999.90;;;1.80;97.10;;;;;;5062196;28;20067;-79
2024/01/27 00:21:07;;;;;;;1999.90;999.90;;;1.70;97.30;;;;;;5063874;28;20722;-77
2024/01/27 00:23:32;;;;;;;1999.90;999.90;;;1.60;97.30;;;;;;5047612;28;20041;-82
2024/01/27 00:25:58;;;;;;;1999.90;999.90;;;1.40;97.40;;;;;;5065774;28;20037;-78
2024/01/27 00:28:24;;;;;;;1999.90;999.90;;;1.40;97.70;;;;;;5066346;28;20067;-80
2024/01/27 00:30:50;;;;;;;1999.90;999.90;;;1.30;97.90;;;;;;5065494;28;20025;-79
2024/01/27 00:33:15;;;;;;;1999.90;999.90;;;1.40;98.20;;;;;;5062493;28;20053;-78
2024/01/27 00:35:41;;;;;;;1999.90;999.90;;;1.30;98.00;;;;;;5065194;28;20040;-78
2024/01/27 00:38:07;;;;;;;1999.90;999.90;;;1.10;98.30;;;;;;5067028;28;20034;-82
2024/01/27 00:40:33;;;;;;;1999.90;999.90;;;1.00;98.40;;;;;;5066869;28;20398;-78
2024/01/27 00:42:58;;;;;;;1999.90;999.90;;;1.00;98.60;;;;;;5067682;28;20123;-79
2024/01/27 00:45:26;;;;;;;1999.90;999.90;;;1.10;99.30;;;;;;5065159;28;20040;-78
2024/01/27 00:47:51;;;;;;;1999.90;999.90;;;1.10;99.20;;;;;;5066567;28;20032;-78
2024/01/27 00:50:17;;;;;;;1999.90;999.90;;;1.00;99.10;;;;;;5064365;28;20025;-78
2024/01/27 00:52:43;;;;;;;1999.90;999.90;;;0.90;99.00;;;;;;5066632;28;20447;-78
2024/01/27 00:55:08;;;;;;;1999.90;999.90;;;0.90;99.20;;;;;;5064430;28;20079;-79
2024/01/27 00:57:38;;;;;;;1999.90;999.90;;;0.90;99.30;;;;;;5061842;28;20039;-78
2024/01/27 01:00:08;;;;;;;1999.90;999.90;;;1.00;99.40;;;;;;5062160;28;20024;-79
2024/01/27 01:02:34;;;;;;;1999.90;999.90;;;0.80;99.30;;;;;;5063184;28;20056;-77
2024/01/27 01:05:00;;;;;;;1999.90;999.90;;;0.90;99.90;;;;;;5060013;28;20105;-80
2024/01/27 01:07:25;;;;;;;1999.90;999.90;;;0.90;99.90;;;;;;5063572;28;20040;-78
2024/01/27 01:09:51;;;;;;;1999.90;999.90;;;0.90;99.90;;;;;;5064050;28;20028;-78
2024/01/27 01:12:17;;;;;;;1999.90;999.90;;;0.70;99.90;;;;;;5059786;28;20031;-79
2024/01/27 01:14:43;;;;;;;1999.90;999.90;;;0.70;99.90;;;;;;5060925;28;20100;-78
2024/01/27 01:17:09;;;;;;;1999.90;999.90;;;0.70;99.90;;;;;;5065091;28;20037;-80
2024/01/27 01:19:37;;;;;;;1999.90;999.90;;;0.70;99.90;;;;;;5059136;28;20429;-79
2024/01/27 01:22:04;;;;;;;1999.90;999.90;;;0.60;99.90;;;;;;5064440;28;20046;-80
2024/01/27 01:24:30;;;;;;;1999.90;999.90;;;0.60;99.90;;;;;;5064339;28;20032;-78
2024/01/27 01:26:56;;;;;;;1999.90;999.90;;;0.50;99.90;;;;;;5064558;28;20036;-77
2024/01/27 01:29:22;;;;;;;1999.90;999.90;;;0.60;99.90;;;;;;5064191;28;20036;-80
2024/01/27 01:31:48;;;;;;;1999.90;999.90;;;0.60;99.90;;;;;;5063859;28;20063;-79
2024/01/27 01:34:13;;;;;;;1999.90;999.90;;;0.60;99.90;;;;;;5065635;28;20052;-79
2024/01/27 01:36:39;;;;;;;1999.90;999.90;;;0.50;99.90;;;;;;5061959;28;20037;-77
2024/01/27 01:39:06;;;;;;;1999.90;999.90;;;0.50;99.90;;;;;;5063742;28;20021;-80
2024/01/27 01:41:31;;;;;;;1999.90;999.90;;;0.50;99.90;;;;;;5058354;28;20025;-80
2024/01/27 01:43:57;;;;;;;1999.90;999.90;;;0.50;99.90;;;;;;5064625;28;20928;-77
2024/01/27 01:46:23;;;;;;;1999.90;999.90;;;0.50;99.90;;;;;;5063223;28;20021;-79
2024/01/27 01:48:50;;;;;;;1999.90;999.90;;;0.50;99.90;;;;;;5065005;28;20082;-79
2024/01/27 01:51:18;;;;;;;1999.90;999.90;;;0.60;99.90;;;;;;5065630;28;20040;-79
2024/01/27 01:53:47;;;;;;;1999.90;999.90;;;0.60;99.90;;;;;;5062357;28;20089;-78
2024/01/27 01:56:16;;;;;;;1999.90;999.90;;;0.50;99.90;;;;;;5062174;28;20063;-78
2024/01/27 01:58:42;;;;;;;1999.90;999.90;;;0.30;99.90;;;;;;5063669;28;20363;-79
2024/01/27 02:01:09;;;;;;;1999.90;999.90;;;0.10;99.90;;;;;;5047480;28;20036;-77
2024/01/27 02:03:34;;;;;;;1999.90;999.90;;;0.10;99.90;;;;;;5061173;28;20127;-78
2024/01/27 02:06:00;;;;;;;1999.90;999.90;;;0.00;99.90;;;;;;5065407;28;20587;-79
2024/01/27 02:08:26;;;;;;;1999.90;999.90;;;-0.10;99.90;;;;;;5064455;28;20060;-79
2024/01/27 02:10:51;;;;;;;1999.90;999.90;;;-0.10;99.90;;;;;;5064347;28;20569;-78
2024/01/27 02:13:22;;;;;;;1999.90;999.90;;;-0.20;99.90;;;;;;5063465;28;20449;-77
2024/01/27 02:15:49;;;;;;;1999.90;999.90;;;-0.20;99.90;;;;;;5065376;28;20425;-78
2024/01/27 02:18:15;;;;;;;1999.90;999.90;;;-0.20;99.90;;;;;;5064875;28;20556;-78
2024/01/27 02:20:41;;;;;;;1999.90;999.90;;;-0.30;99.90;;;;;;5063256;28;20036;-79
2024/01/27 02:23:07;;;;;;;1999.90;999.90;;;-0.40;99.90;;;;;;5061849;28;20714;-78
2024/01/27 02:25:33;;;;;;;1999.90;999.90;;;-0.40;99.90;;;;;;5076520;28;20028;-81
2024/01/27 02:28:00;;;;;;;1999.90;999.90;;;-0.40;99.90;;;;;;5063237;28;20055;-77
2024/01/27 02:30:25;;;;;;;1999.90;999.90;;;-0.40;99.90;;;;;;5063384;28;20028;-79
2024/01/27 02:32:51;;;;;;;1999.90;999.90;;;-0.50;99.90;;;;;;5061062;28;20081;-78
2024/01/27 02:35:17;;;;;;;1999.90;999.90;;;-0.60;99.90;;;;;;5064831;28;20127;-78
2024/01/27 02:37:43;;;;;;;1999.90;999.90;;;-0.60;99.90;;;;;;5062196;28;20656;-78
2024/01/27 02:40:09;;;;;;;1999.90;999.90;;;-0.60;99.90;;;;;;5031884;28;20036;-78
2024/01/27 02:42:36;;;;;;;1999.90;999.90;;;-0.60;99.90;;;;;;5063448;28;20021;-78
2024/01/27 02:45:02;;;;;;;1999.90;999.90;;;-0.60;99.90;;;;;;5064945;28;20040;-79
2024/01/27 02:47:27;;;;;;;1999.90;999.90;;;-0.60;99.90;;;;;;5062171;28;20625;-78
2024/01/27 02:49:53;;;;;;;1999.90;999.90;;;-0.60;99.90;;;;;;5065825;28;20032;-76
2024/01/27 02:52:19;;;;;;;1999.90;999.90;;;-0.60;99.90;;;;;;5063099;28;20036;-78
2024/01/27 02:54:45;;;;;;;1999.90;999.90;;;-0.60;99.90;;;;;;5064961;28;20624;-78
2024/01/27 02:57:11;;;;;;;1999.90;999.90;;;-0.60;99.90;;;;;;5066121;28;20025;-78
2024/01/27 02:59:38;;;;;;;1999.90;999.90;;;-0.60;99.90;;;;;;5064848;28;20035;-78
2024/01/27 03:02:05;;;;;;;1999.90;999.90;;;-0.70;99.90;;;;;;5062396;28;20024;-77
2024/01/27 03:04:31;;;;;;;1999.90;999.90;;;-0.70;99.90;;;;;;5064513;28;20033;-78
2024/01/27 03:06:56;;;;;;;1999.90;999.90;;;-0.70;99.90;;;;;;5064567;28;20032;-78
2024/01/27 03:09:22;;;;;;;1999.90;999.90;;;-0.60;99.90;;;;;;5068541;28;20050;-78
2024/01/27 03:11:48;;;;;;;1999.90;999.90;;;-0.70;99.90;;;;;;5065652;28;20390;-77
2024/01/27 03:14:14;;;;;;;1999.90;999.90;;;-0.70;99.90;;;;;;5065078;28;20119;-78
2024/01/27 03:16:40;;;;;;;1999.90;999.90;;;-0.80;99.90;;;;;;5068491;28;20106;-79
2024/01/27 03:19:06;;;;;;;1999.90;999.90;;;-0.80;99.90;;;;;;5067789;28;20025;-77
2024/01/27 03:21:32;;;;;;;1999.90;999.90;;;-0.80;99.90;;;;;;5068000;28;20020;-78
2024/01/27 03:23:58;;;;;;;1999.90;999.90;;;-0.80;99.90;;;;;;5053474;28;20094;-78
2024/01/27 03:26:23;;;;;;;1999.90;999.90;;;-0.90;99.90;;;;;;5071406;28;20047;-78
2024/01/27 03:28:49;;;;;;;1999.90;999.90;;;-0.80;99.90;;;;;;5068896;28;20032;-79
2024/01/27 03:31:15;;;;;;;1999.90;999.90;;;-0.80;99.90;;;;;;5068852;28;20060;-78
2024/01/27 03:33:40;;;;;;;1999.90;999.90;;;-0.80;99.90;;;;;;5066857;28;20112;-78
2024/01/27 03:36:11;;;;;;;1999.90;999.90;;;-0.90;99.90;;;;;;5062972;28;20075;-78
2024/01/27 03:38:37;;;;;;;1999.90;999.90;;;-0.90;99.90;;;;;;5064208;28;20028;-77
2024/01/27 03:41:04;;;;;;;1999.90;999.90;;;-1.00;99.90;;;;;;5068547;28;20112;-77
2024/01/27 03:43:30;;;;;;;1999.90;999.90;;;-1.00;99.90;;;;;;5070479;28;20036;-77
2024/01/27 03:45:56;;;;;;;1999.90;999.90;;;-1.10;99.90;;;;;;5068643;28;20402;-77
2024/01/27 03:48:22;;;;;;;1999.90;999.90;;;-1.10;99.90;;;;;;5067792;28;20052;-77
2024/01/27 03:50:48;;;;;;;1999.90;999.90;;;-1.20;99.90;;;;;;5069469;28;20118;-78
2024/01/27 03:53:13;;;;;;;1999.90;999.90;;;-1.20;99.90;;;;;;5050794;28;20600;-78
2024/01/27 03:55:39;;;;;;;1999.90;999.90;;;-1.20;99.90;;;;;;5064937;28;20050;-78
2024/01/27 03:58:05;;;;;;;1999.90;999.90;;;-1.10;99.90;;;;;;5067289;28;20086;-78
2024/01/27 04:00:32;;;;;;;1999.90;999.90;;;-1.10;99.90;;;;;;5068809;28;20060;-78
2024/01/27 04:02:59;;;;;;;1999.90;999.90;;;-1.10;99.90;;;;;;5050226;28;20025;-79
2024/01/27 04:05:25;;;;;;;1999.90;999.90;;;-1.10;99.90;;;;;;5066521;28;20045;-78
2024/01/27 04:07:51;;;;;;;1999.90;999.90;;;-1.00;99.90;;;;;;5063770;28;20044;-78
2024/01/27 04:10:18;;;;;;;1999.90;999.90;;;-0.90;99.90;;;;;;5066313;28;20078;-78
2024/01/27 04:12:43;;;;;;;1999.90;999.90;;;-0.90;99.90;;;;;;5065541;28;20025;-78
2024/01/27 04:15:10;;;;;;;1999.90;999.90;;;-1.00;99.90;;;;;;5064767;28;20028;-77
2024/01/27 04:17:38;;;;;;;1999.90;999.90;;;-1.00;99.90;;;;;;5068808;28;20445;-78
2024/01/27 04:20:04;;;;;;;1999.90;999.90;;;-1.00;99.90;;;;;;5065989;28;20495;-77
2024/01/27 04:22:30;;;;;;;1999.90;999.90;;;-1.00;99.90;;;;;;5068558;28;20067;-78
2024/01/27 04:24:56;;;;;;;1999.90;999.90;;;-1.10;99.90;;;;;;5067053;28;20089;-78
2024/01/27 04:27:22;;;;;;;1999.90;999.90;;;-1.10;99.90;;;;;;5065839;28;20037;-78
2024/01/27 04:29:48;;;;;;;1999.90;999.90;;;-1.20;99.90;;;;;;5051392;28;20028;-78
2024/01/27 04:32:13;;;;;;;1999.90;999.90;;;-1.20;99.90;;;;;;5066152;28;20099;-78
2024/01/27 04:34:39;;;;;;;1999.90;999.90;;;-1.20;99.90;;;;;;5065886;28;20031;-78
2024/01/27 04:37:05;;;;;;;1999.90;999.90;;;-1.20;99.90;;;;;;5066729;28;20098;-79
2024/01/27 04:39:31;;;;;;;1999.90;999.90;;;-1.20;99.90;;;;;;5068587;28;20033;-78
2024/01/27 04:41:56;;;;;;;1999.90;999.90;;;-1.30;99.90;;;;;;5066656;28;20047;-78
2024/01/27 04:44:22;;;;;;;1999.90;999.90;;;-1.40;99.90;;;;;;5066147;28;20033;-79
2024/01/27 04:46:48;;;;;;;1999.90;999.90;;;-1.40;99.90;;;;;;5062166;28;20120;-78
2024/01/27 04:49:14;;;;;;;1999.90;999.90;;;-1.40;99.90;;;;;;5068500;28;20024;-76
2024/01/27 04:51:40;;;;;;;1999.90;999.90;;;-1.40;99.90;;;;;;5067778;28;20577;-78
2024/01/27 04:54:07;;;;;;;1999.90;999.90;;;-1.50;99.90;;;;;;5067048;28;20017;-78
2024/01/27 04:56:32;;;;;;;1999.90;999.90;;;-1.60;99.90;;;;;;5067013;28;20127;-78
2024/01/27 04:58:58;;;;;;;1999.90;999.90;;;-1.60;99.90;;;;;;5065894;28;20025;-77
2024/01/27 05:01:24;;;;;;;1999.90;999.90;;;-1.60;99.90;;;;;;5067380;28;20459;-77
2024/01/27 05:03:49;;;;;;;1999.90;999.90;;;-1.70;99.90;;;;;;5065912;28;20454;-78
2024/01/27 05:06:17;;;;;;;1999.90;999.90;;;-1.80;99.90;;;;;;5065456;28;20509;-78
2024/01/27 05:08:43;;;;;;;1999.90;999.90;;;-1.70;99.90;;;;;;5063592;28;20401;-78
2024/01/27 05:11:10;;;;;;;1999.90;999.90;;;-1.70;99.90;;;;;;5066073;28;20028;-78
2024/01/27 05:13:37;;;;;;;1999.90;999.90;;;-1.70;99.90;;;;;;5065275;28;20056;-77
2024/01/27 05:16:03;;;;;;;1999.90;999.90;;;-1.70;99.90;;;;;;5063694;28;20017;-78
2024/01/27 05:18:29;;;;;;;1999.90;999.90;;;-1.70;99.90;;;;;;5064398;28;20082;-78
2024/01/27 05:20:56;;;;;;;1999.90;999.90;;;-1.70;99.90;;;;;;5065258;28;20025;-77
2024/01/27 05:23:21;;;;;;;1999.90;999.90;;;-1.80;99.90;;;;;;5066443;28;20064;-78
2024/01/27 05:25:47;;;;;;;1999.90;999.90;;;-1.90;99.90;;;;;;5066899;28;20090;-77
2024/01/27 05:28:13;;;;;;;1999.90;999.90;;;-1.90;99.90;;;;;;5066622;28;20514;-77
2024/01/27 05:30:38;;;;;;;1999.90;999.90;;;-1.90;99.90;;;;;;5066951;28;20025;-78
2024/01/27 05:33:04;;;;;;;1999.90;999.90;;;-1.90;99.90;;;;;;5061246;28;20067;-78
2024/01/27 05:35:29;;;;;;;1999.90;999.90;;;-1.80;99.90;;;;;;5063254;28;20419;-78
2024/01/27 05:37:56;;;;;;;1999.90;999.90;;;-1.70;99.90;;;;;;5063765;28;20617;-78
2024/01/27 05:40:21;;;;;;;1999.90;999.90;;;-1.60;99.90;;;;;;5066943;28;20032;-78
2024/01/27 05:42:49;;;;;;;1999.90;999.90;;;-1.60;99.90;;;;;;5067183;28;20406;-78
2024/01/27 05:45:15;;;;;;;1999.90;999.90;;;-1.60;99.90;;;;;;5063135;28;20066;-77
2024/01/27 05:47:41;;;;;;;1999.90;999.90;;;-1.70;99.90;;;;;;5062116;28;20069;-77
2024/01/27 05:50:08;;;;;;;1999.90;999.90;;;-1.80;99.90;;;;;;5064679;28;20052;-77
2024/01/27 05:52:34;;;;;;;1999.90;999.90;;;-1.90;99.90;;;;;;5062762;28;20112;-78
2024/01/27 05:55:01;;;;;;;1999.90;999.90;;;-1.90;99.90;;;;;;5066661;28;20025;-79
2024/01/27 05:57:26;;;;;;;1999.90;999.90;;;-2.00;99.90;;;;;;5066599;28;20032;-77
2024/01/27 05:59:52;;;;;;;1999.90;999.90;;;-2.00;99.90;;;;;;5067631;28;20032;-77
2024/01/27 06:02:17;;;;;;;1999.90;999.90;;;-2.10;99.90;;;;;;5065929;28;20102;-77
2024/01/27 06:04:43;;;;;;;1999.90;999.90;;;-2.20;99.90;;;;;;5064304;28;20403;-77
2024/01/27 06:07:09;;;;;;;1999.90;999.90;;;-2.20;99.90;;;;;;5050144;28;20115;-78
2024/01/27 06:09:37;;;;;;;1999.90;999.90;;;-2.30;99.90;;;;;;5063698;28;20055;-77
2024/01/27 06:12:03;;;;;;;1999.90;999.90;;;-2.30;99.90;;;;;;5064865;28;20024;-78
2024/01/27 06:14:29;;;;;;;1999.90;999.90;;;-2.30;99.90;;;;;;5064823;28;20037;-78
2024/01/27 06:16:54;;;;;;;1999.90;999.90;;;-2.20;99.90;;;;;;5066524;28;20040;-78
2024/01/27 06:19:20;;;;;;;1999.90;999.90;;;-2.20;99.90;;;;;;5065764;28;20035;-80
2024/01/27 06:21:46;;;;;;;1999.90;999.90;;;-2.20;99.90;;;;;;5059207;28;20272;-76
2024/01/27 06:24:11;;;;;;;1999.90;999.90;;;-2.30;99.90;;;;;;5062196;28;20060;-76
2024/01/27 06:26:37;;;;;;;1999.90;999.90;;;-2.40;99.90;;;;;;5066545;28;20516;-76
2024/01/27 06:29:04;;;;;;;1999.90;999.90;;;-2.50;99.90;;;;;;5064069;28;20023;-77
2024/01/27 06:31:29;;;;;;;1999.90;999.90;;;-2.50;99.90;;;;;;5064310;28;20032;-76
2024/01/27 06:33:55;;;;;;;1999.90;999.90;;;-2.40;99.90;;;;;;5063470;28;20033;-77
2024/01/27 06:36:24;;;;;;;1999.90;999.90;;;-2.40;99.90;;;;;;5045460;28;20086;-77
2024/01/27 06:38:50;;;;;;;1999.90;999.90;;;-2.40;99.90;;;;;;5065338;28;20021;-78
2024/01/27 06:41:16;;;;;;;1999.90;999.90;;;-2.30;99.90;;;;;;5063087;28;20067;-77
2024/01/27 06:43:42;;;;;;;1999.90;999.90;;;-2.30;99.90;;;;;;5049108;28;20060;-79
2024/01/27 06:46:08;;;;;;;1999.90;999.90;;;-2.30;99.90;;;;;;5062985;28;20056;-78
2024/01/27 06:48:34;;;;;;;1999.90;999.90;;;-2.10;99.90;;;;;;5061038;28;20056;-78
2024/01/27 06:51:00;;;;;;;1999.90;999.90;;;-2.10;99.90;;;;;;5062259;28;20017;-76
2024/01/27 06:53:26;;;;;;;1999.90;999.90;;;-2.10;99.90;;;;;;5087134;28;20055;-76
2024/01/27 06:55:51;;;;;;;1999.90;999.90;;;-2.10;99.90;;;;;;5078948;28;20058;-77
2024/01/27 06:58:17;;;;;;;1999.90;999.90;;;-2.20;99.90;;;;;;5069171;28;20764;-76
2024/01/27 07:00:43;;;;;;;1999.90;999.90;;;-2.20;99.90;;;;;;5069419;28;20498;-75
2024/01/27 07:03:10;;;;;;;1999.90;999.90;;;-2.10;99.90;;;;;;5069381;28;20395;-76
2024/01/27 07:05:40;;;;;;;1999.90;999.90;;;-2.20;99.90;;;;;;5067391;28;20040;-76
2024/01/27 07:08:07;;;;;;;1999.90;999.90;;;-2.30;99.90;;;;;;5069103;28;20028;-77
2024/01/27 07:10:33;;;;;;;1999.90;999.90;;;-2.20;99.90;;;;;;5063585;28;20526;-77
2024/01/27 07:12:59;;;;;;;1999.90;999.90;;;-2.20;99.90;;;;;;5065565;28;20108;-78
2024/01/27 07:15:24;;;;;;;1999.90;999.90;;;-2.10;99.90;;;;;;5067319;28;20120;-78
2024/01/27 07:17:50;;;;;;;1999.90;999.90;;;-2.00;99.90;;;;;;5065981;28;20059;-77
2024/01/27 07:20:16;;;;;;;1999.90;999.90;;;-2.10;99.90;;;;;;5063424;28;20383;-77
2024/01/27 07:22:41;;;;;;;1999.90;999.90;;;-2.10;99.90;;;;;;5065709;28;20628;-77
2024/01/27 07:25:10;;;;;;;1999.90;999.90;;;-2.10;99.90;;;;;;5068108;28;20085;-77
2024/01/27 07:27:36;;;;;;;1999.90;999.90;;;-2.10;99.90;;;;;;5066800;28;20037;-78
2024/01/27 07:30:03;;;;;;;1999.90;999.90;;;-2.00;99.90;;;;;;5066809;28;20025;-77
2024/01/27 07:32:29;;;;;;;1999.90;999.90;;;-2.00;99.90;;;;;;5064693;28;20036;-77
2024/01/27 07:34:54;;;;;;;1999.90;999.90;;;-2.00;99.90;;;;;;5067444;28;20687;-77
2024/01/27 07:37:20;;;;;;;1999.90;999.90;;;-1.90;99.90;;;;;;5064260;28;20747;-78
2024/01/27 07:39:48;;;;;;;1999.90;999.90;;;-1.90;99.90;;;;;;5067058;28;20558;-77
2024/01/27 07:42:15;;;;;;;1999.90;999.90;;;-1.90;99.90;;;;;;5098747;28;20033;-77
2024/01/27 07:44:42;;;;;;;1999.90;999.90;;;-1.90;99.90;;;;;;5066971;28;20032;-77
2024/01/27 07:47:11;;;;;;;1999.90;999.90;;;-1.90;99.90;;;;;;5053118;28;20063;-77
2024/01/27 07:49:37;;;;;;;1999.90;999.90;;;-1.90;99.90;;;;;;5065890;28;20028;-77
2024/01/27 07:52:02;;;;;;;1999.90;999.90;;;-1.80;99.90;;;;;;5065361;28;20025;-76
2024/01/27 07:54:29;;;;;;;1999.90;999.90;;;-1.90;99.90;;;;;;5066893;28;20029;-77
2024/01/27 07:56:54;;;;;;;1999.90;999.90;;;-1.80;99.90;;;;;;5067092;28;20029;-76
2024/01/27 07:59:20;;;;;;;1999.90;999.90;;;-1.70;99.90;;;;;;5064893;28;20025;-76
2024/01/27 08:01:46;;;;;;;1999.90;999.90;;;-1.60;99.90;;;;;;5068741;28;20055;-77
2024/01/27 08:04:12;;;;;;;1999.90;999.90;;;-1.50;99.90;;;;;;5068866;28;20060;-77
2024/01/27 08:06:49;;;;;;;1999.90;999.90;;;-1.40;99.90;;;;;;5066086;28;20046;-77
2024/01/27 08:09:15;;;;;;;1999.90;999.90;;;-1.40;99.90;;;;;;5071839;28;20037;-78
2024/01/27 08:11:41;;;;;;;1999.90;999.90;;;-1.30;99.90;;;;;;5069017;28;20089;-78
2024/01/27 08:14:07;;;;;;;1999.90;999.90;;;-1.40;99.90;;;;;;5052053;28;20466;-78
2024/01/27 08:16:32;;;;;;;1999.90;999.90;;;-1.20;99.90;;;;;;5073434;28;20047;-79
2024/01/27 08:18:59;;;;;;;1999.90;999.90;;;-1.20;99.90;;;;;;5079426;28;20048;-77
2024/01/27 08:21:25;;;;;;;1999.90;999.90;;;-1.10;99.90;;;;;;5076669;28;20037;-78
2024/01/27 08:23:51;;;;;;;1999.90;999.90;;;-1.00;99.90;;;;;;5083188;28;20052;-77
2024/01/27 08:26:18;;;;;;;1999.90;999.90;;;-0.90;99.90;;;;;;5094896;28;20025;-75
2024/01/27 08:28:44;;;;;;;1999.90;999.90;;;-0.90;99.90;;;;;;5080844;28;20078;-81
2024/01/27 08:31:10;;;;;;;1999.90;999.90;;;-0.90;99.90;;;;;;5054062;28;20033;-78
2024/01/27 08:33:35;;;;;;;1999.90;999.90;;;-0.70;99.90;;;;;;5072215;28;20110;-77
2024/01/27 08:36:01;;;;;;;1999.90;999.90;;;-0.70;99.90;;;;;;5070496;28;20052;-76
2024/01/27 08:38:28;;;;;;;1999.90;999.90;;;-0.60;99.90;;;;;;5069402;28;20067;-85
2024/01/27 08:40:53;;;;;;;1999.90;999.90;;;-0.50;99.90;;;;;;5066597;28;20032;-77
2024/01/27 08:43:19;;;;;;;1999.90;999.90;;;-0.50;99.90;;;;;;5067056;28;20036;-76
2024/01/27 08:45:45;;;;;;;1999.90;999.90;;;-0.30;99.90;;;;;;5065679;28;20074;-78
2024/01/27 08:48:11;;;;;;;1999.90;999.90;;;-0.20;99.90;;;;;;5064706;28;20040;-77
2024/01/27 08:50:37;;;;;;;1999.90;999.90;;;-0.20;99.90;;;;;;5050987;28;20469;-77
2024/01/27 08:53:03;;;;;;;1999.90;999.90;;;0.10;99.90;;;;;;5065604;28;20060;-77
2024/01/27 08:55:29;;;;;;;1999.90;999.90;;;0.30;99.90;;;;;;5063610;28;20063;-77
2024/01/27 08:57:56;;;;;;;1999.90;999.90;;;0.40;99.90;;;;;;5082197;28;20733;-77
2024/01/27 09:00:22;;;;;;;1999.90;999.90;;;0.50;99.90;;;;;;5065634;28;20028;-78
2024/01/27 09:02:47;;;;;;;1999.90;999.90;;;0.70;99.90;;;;;;5061510;28;20025;-78
2024/01/27 09:05:13;;;;;;;1999.90;999.90;;;0.80;99.90;;;;;;5082877;28;20593;-77
2024/01/27 09:07:39;;;;;;;1999.90;999.90;;;1.00;99.90;;;;;;5066046;28;20044;-79
2024/01/27 09:10:05;;;;;;;1999.90;999.90;;;1.10;99.90;;;;;;5064982;28;20044;-79
2024/01/27 09:12:31;;;;;;;1999.90;999.90;;;1.10;99.90;;;;;;5066001;28;20036;-79
2024/01/27 09:14:56;;;;;;;1999.90;999.90;;;1.10;99.90;;;;;;5065739;28;20047;-80
2024/01/27 09:17:22;;;;;;;1999.90;999.90;;;2.90;99.90;;;;;;5078572;28;20032;-78
2024/01/27 09:19:48;;;;;;;1999.90;999.90;;;3.00;99.90;;;;;;5058921;28;20048;-79
2024/01/27 09:22:13;;;;;;;1999.90;999.90;;;2.90;99.90;;;;;;5064842;28;20096;-78
2024/01/27 09:24:40;;;;;;;1999.90;999.90;;;2.90;99.90;;;;;;5064658;28;20099;-79
2024/01/27 09:27:05;;;;;;;1999.90;999.90;;;3.00;99.90;;;;;;5066702;28;20043;-77
2024/01/27 09:29:31;;;;;;;1999.90;999.90;;;3.10;99.90;;;;;;5065959;28;20041;-78
2024/01/27 09:31:57;;;;;;;1999.90;999.90;;;3.00;99.90;;;;;;5065606;28;20040;-78
2024/01/27 09:34:22;;;;;;;1999.90;999.90;;;3.00;99.90;;;;;;5065932;28;20051;-78
2024/01/27 09:36:49;;;;;;;1999.90;999.90;;;3.00;99.90;;;;;;5063464;28;20028;-80
2024/01/27 09:39:14;;;;;;;1999.90;999.90;;;3.20;99.90;;;;;;5065824;28;20095;-78
2024/01/27 09:41:40;;;;;;;1999.90;999.90;;;3.10;99.90;;;;;;5049086;28;20028;-79
2024/01/27 09:44:06;;;;;;;1999.90;999.90;;;3.30;99.90;;;;;;5066364;28;20020;-80
2024/01/27 09:46:32;;;;;;;1999.90;999.90;;;3.30;99.90;;;;;;5061123;28;20024;-80
2024/01/27 09:48:58;;;;;;;1999.90;999.90;;;3.30;99.90;;;;;;5063962;28;20036;-78
2024/01/27 09:51:25;;;;;;;1999.90;999.90;;;3.30;99.90;;;;;;5081366;28;20024;-80
2024/01/27 09:53:52;;;;;;;1999.90;999.90;;;3.40;99.90;;;;;;5065091;28;20039;-78
2024/01/27 09:56:18;;;;;;;1999.90;999.90;;;3.50;99.90;;;;;;5061784;28;20024;-77
2024/01/27 09:58:45;;;;;;;1999.90;999.90;;;3.60;99.90;;;;;;5062123;28;20040;-78
2024/01/27 10:01:12;;;;;;;1999.90;999.90;;;3.70;99.90;;;;;;5063702;28;20041;-80
2024/01/27 10:03:40;;;;;;;1999.90;999.90;;;3.70;99.90;;;;;;5066129;28;20028;-78
2024/01/27 10:06:09;;;;;;;1999.90;999.90;;;3.70;99.90;;;;;;5078525;28;20045;-79
2024/01/27 10:08:35;;;;;;;1999.90;999.90;;;3.70;99.90;;;;;;5064707;28;20028;-81
2024/01/27 10:11:07;;;;;;;1999.90;999.90;;;3.70;99.90;;;;;;5063069;28;20036;-79
2024/01/27 10:13:34;;;;;;;1999.90;999.90;;;3.70;99.90;;;;;;5065273;28;20047;-78
2024/01/27 10:16:12;;;;;;;1999.90;999.90;;;3.80;99.90;;;;;;5065127;28;20043;-77
2024/01/27 10:18:37;;;;;;;1999.90;999.90;;;3.80;99.90;;;;;;5061176;28;20029;-79
2024/01/27 10:21:23;;;;;;;1999.90;999.90;;;3.90;99.90;;;;;;5065311;28;20039;-80
2024/01/27 10:23:48;;;;;;;1999.90;999.90;;;3.80;99.90;;;;;;5063747;28;20174;-80
2024/01/27 10:26:14;;;;;;;1999.90;999.90;;;3.80;99.90;;;;;;5063800;28;20457;-80
2024/01/27 10:28:42;;;;;;;1999.90;999.90;;;3.80;99.90;;;;;;5063128;28;20048;-80
2024/01/27 10:31:11;;;;;;;1999.90;999.90;;;3.70;99.90;;;;;;5062698;28;20390;-79
2024/01/27 10:33:37;;;;;;;1999.90;999.90;;;3.70;99.90;;;;;;5064255;28;20032;-78
2024/01/27 10:36:03;;;;;;;1999.90;999.90;;;3.70;99.90;;;;;;5065991;28;20409;-81
2024/01/27 10:38:38;;;;;;;1999.90;999.90;;;3.70;99.90;;;;;;5066126;28;20056;-88
2024/01/27 10:41:12;;;;;;;1999.90;999.90;;;3.80;99.90;;;;;;5081562;28;20082;-80
2024/01/27 10:43:39;;;;;;;1999.90;999.90;;;4.00;99.90;;;;;;5067039;28;20025;-79
2024/01/27 10:46:07;;;;;;;1999.90;999.90;;;3.90;99.90;;;;;;5066832;28;20035;-80
2024/01/27 10:48:39;;;;;;;1999.90;999.90;;;3.90;99.90;;;;;;5066903;28;20040;-80
2024/01/27 10:51:08;;;;;;;1999.90;999.90;;;3.80;99.90;;;;;;5062249;28;20021;-81
2024/01/27 10:53:37;;;;;;;1999.90;999.90;;;3.90;99.90;;;;;;5077757;28;20020;-79
2024/01/27 10:56:08;;;;;;;1999.90;999.90;;;3.90;99.90;;;;;;5063842;28;20028;-80
2024/01/27 10:58:40;;;;;;;1999.90;999.90;;;3.90;99.90;;;;;;5065511;28;20119;-78
2024/01/27 11:01:10;;;;;;;1999.90;999.90;;;3.90;99.90;;;;;;5065716;28;20052;-78
2024/01/27 11:03:39;;;;;;;1999.90;999.90;;;3.90;99.90;;;;;;5062804;28;20041;-80
2024/01/27 11:06:06;;;;;;;1999.90;999.90;;;4.00;99.90;;;;;;5063048;28;20051;-81
2024/01/27 11:08:37;;;;;;;1999.90;999.90;;;3.90;99.90;;;;;;5063905;28;20051;-79
2024/01/27 11:11:03;;;;;;;1999.90;999.90;;;3.90;99.90;;;;;;5059770;28;20029;-81
2024/01/27 11:13:30;;;;;;;1999.90;999.90;;;3.90;99.90;;;;;;5061710;28;20044;-79
2024/01/27 11:15:58;;;;;;;1999.90;999.90;;;3.90;99.90;;;;;;5064238;28;20021;-78
2024/01/27 11:18:25;;;;;;;1999.90;999.90;;;4.00;99.90;;;;;;5062750;28;20060;-80
2024/01/27 11:20:54;;;;;;;1999.90;999.90;;;4.10;99.90;;;;;;5061091;28;20024;-81
2024/01/27 11:23:31;;;;;;;1999.90;999.90;;;4.10;99.90;;;;;;5063060;28;20033;-84
2024/01/27 11:26:07;;;;;;;1999.90;999.90;;;4.20;99.90;;;;;;5060414;28;20035;-82
2024/01/27 11:28:33;;;;;;;1999.90;999.90;;;4.20;99.90;;;;;;5066116;28;20115;-80
2024/01/27 11:31:03;;;;;;;1999.90;999.90;;;4.10;99.90;;;;;;5075416;28;20120;-79
2024/01/27 11:33:30;;;;;;;1999.90;999.90;;;4.20;99.90;;;;;;5062484;28;20013;-88
2024/01/27 11:36:04;;;;;;;1999.90;999.90;;;4.20;99.90;;;;;;5077490;28;20037;-79
2024/01/27 11:38:32;;;;;;;1999.90;999.90;;;4.10;99.90;;;;;;5063896;28;20024;-80
2024/01/27 11:40:59;;;;;;;1999.90;999.90;;;4.10;99.90;;;;;;5063784;28;20032;-80
2024/01/27 11:43:25;;;;;;;1999.90;999.90;;;4.00;99.90;;;;;;5050437;28;20070;-79
2024/01/27 11:46:01;;;;;;;1999.90;999.90;;;4.10;99.90;;;;;;5067423;28;20129;-81
2024/01/27 11:48:29;;;;;;;1999.90;999.90;;;4.20;99.90;;;;;;5066687;28;20047;-78
2024/01/27 11:51:03;;;;;;;1999.90;999.90;;;4.20;99.90;;;;;;5064915;28;20017;-78
2024/01/27 11:53:29;;;;;;;1999.90;999.90;;;4.20;99.90;;;;;;5067526;28;20141;-78
2024/01/27 11:55:56;;;;;;;1999.90;999.90;;;4.20;99.90;;;;;;5065667;28;20082;-79
2024/01/27 11:58:21;;;;;;;1999.90;999.90;;;4.30;99.90;;;;;;5067374;28;20025;-78
2024/01/27 12:00:47;;;;;;;1999.90;999.90;;;4.30;99.90;;;;;;5065399;28;20035;-81